Time;durP1;ratioP1;P1;durP2;ratioP2;P2;SDS_P1;SDS_P2;PMS_P1;PMS_P2;Temp;Humidity;BMP_temperature;BMP_pressure;BME280_temperature;BME280_humidity;BME280_pressure;Samples;Min_cycle;Max_cycle;Signal;HPM_P1;HPM_P2
2024/03/12 00:01:10;;;;;;;;;;;;;;;;;;5002212;28;20008;-63
2024/03/12 00:03:38;;;;;;;;;;;;;;;;;;5003490;28;20402;-63
2024/03/12 00:06:05;;;;;;;;;;;;;;;;;;5005438;28;19925;-61
2024/03/12 00:08:32;;;;;;;;;;;;;;;;;;5008442;28;19921;-65
2024/03/12 00:10:58;;;;;;;;;;;;;;;;;;5008109;28;20383;-61
2024/03/12 00:13:24;;;;;;;;;;;;;;;;;;5008867;28;19922;-62
2024/03/12 00:15:50;;;;;;;;;;;;;;;;;;5007208;28;20310;-63
2024/03/12 00:18:16;;;;;;;;;;;;;;;;;;5007797;28;19914;-62
2024/03/12 00:20:43;;;;;;;;;;;;;;;;;;5011046;28;19968;-64
2024/03/12 00:23:09;;;;;;;;;;;;;;;;;;5009544;28;20379;-64
2024/03/12 00:25:34;;;;;;;;;;;;;;;;;;5009816;28;20008;-64
2024/03/12 00:28:00;;;;;;;;;;;;;;;;;;5008026;28;19920;-65
2024/03/12 00:30:27;;;;;;;;;;;;;;;;;;5020137;28;19991;-63
2024/03/12 00:32:54;;;;;;;;;;;;;;;;;;5008241;28;19932;-65
2024/03/12 00:35:19;;;;;;;;;;;;;;;;;;5008084;28;19925;-65
2024/03/12 00:37:47;;;;;;;;;;;;;;;;;;5008294;28;19920;-62
2024/03/12 00:40:13;;;;;;;;;;;;;;;;;;5007089;28;20319;-63
2024/03/12 00:42:39;;;;;;;;;;;;;;;;;;5001950;28;19914;-62
2024/03/12 00:45:07;;;;;;;;;;;;;;;;;;5001964;28;20000;-64
2024/03/12 00:47:33;;;;;;;;;;;;;;;;;;5001612;28;19952;-63
2024/03/12 00:50:00;;;;;;;;;;;;;;;;;;5002644;28;19928;-63
2024/03/12 00:52:26;;;;;;;;;;;;;;;;;;5001556;28;19913;-64
2024/03/12 00:54:52;;;;;;;;;;;;;;;;;;5008443;28;20284;-62
2024/03/12 00:57:19;;;;;;;;;;;;;;;;;;5008499;28;19918;-62
2024/03/12 00:59:47;;;;;;;;;;;;;;;;;;5004714;28;19925;-64
2024/03/12 01:02:13;;;;;;;;;;;;;;;;;;5006242;28;20407;-63
2024/03/12 01:04:39;;;;;;;;;;;;;;;;;;5002065;28;19917;-64
2024/03/12 01:07:07;;;;;;;;;;;;;;;;;;5002143;28;21748;-64
2024/03/12 01:09:38;;;;;;;;;;;;;;;;;;5003039;28;19940;-63
2024/03/12 01:12:04;;;;;;;;;;;;;;;;;;5007022;28;19917;-64
2024/03/12 01:14:30;;;;;;;;;;;;;;;;;;5007723;28;19913;-62
2024/03/12 01:16:56;;;;;;;;;;;;;;;;;;5007145;28;20372;-64
2024/03/12 01:19:23;;;;;;;;;;;;;;;;;;5011230;28;19925;-63
2024/03/12 01:21:51;;;;;;;;;;;;;;;;;;5006427;28;19925;-64
2024/03/12 01:24:17;;;;;;;;;;;;;;;;;;5007137;28;19922;-63
2024/03/12 01:26:44;;;;;;;;;;;;;;;;;;5007162;28;19974;-63
2024/03/12 01:29:10;;;;;;;;;;;;;;;;;;5005999;28;19917;-61
2024/03/12 01:31:36;;;;;;;;;;;;;;;;;;5014485;28;19913;-63
2024/03/12 01:34:01;;;;;;;;;;;;;;;;;;5008215;28;20390;-62
2024/03/12 01:36:36;;;;;;;;;;;;;;;;;;5007761;28;20038;-62
2024/03/12 01:39:04;;;;;;;;;;;;;;;;;;5011710;28;19918;-63
2024/03/12 01:41:31;;;;;;;;;;;;;;;;;;5002486;28;20044;-63
2024/03/12 01:44:02;;;;;;;;;;;;;;;;;;5011785;28;20340;-61
2024/03/12 01:46:29;;;;;;;;;;;;;;;;;;5001642;28;19917;-61
2024/03/12 01:48:54;;;;;;;;;;;;;;;;;;5001503;28;19913;-62
2024/03/12 01:51:20;;;;;;;;;;;;;;;;;;5009542;28;19928;-62
2024/03/12 01:53:47;;;;;;;;;;;;;;;;;;5013527;28;20008;-63
2024/03/12 01:56:13;;;;;;;;;;;;;;;;;;5000934;28;19967;-64
2024/03/12 01:58:40;;;;;;;;;;;;;;;;;;5000598;28;19976;-65
2024/03/12 02:01:06;;;;;;;;;;;;;;;;;;5008191;28;19913;-63
2024/03/12 02:03:32;;;;;;;;;;;;;;;;;;5001530;28;19922;-64
2024/03/12 02:05:58;;;;;;;;;;;;;;;;;;5000860;28;19957;-62
2024/03/12 02:08:24;;;;;;;;;;;;;;;;;;4999474;28;19914;-63
2024/03/12 02:10:50;;;;;;;;;;;;;;;;;;4998671;28;19918;-63
2024/03/12 02:13:16;;;;;;;;;;;;;;;;;;5000093;28;19918;-63
2024/03/12 02:15:41;;;;;;;;;;;;;;;;;;4998952;28;20008;-61
2024/03/12 02:18:08;;;;;;;;;;;;;;;;;;5004374;28;20674;-64
2024/03/12 02:20:34;;;;;;;;;;;;;;;;;;5003306;28;20024;-63
2024/03/12 02:23:00;;;;;;;;;;;;;;;;;;5003284;28;20479;-64
2024/03/12 02:25:26;;;;;;;;;;;;;;;;;;5002863;28;20079;-63
2024/03/12 02:27:52;;;;;;;;;;;;;;;;;;5002215;28;19960;-63
2024/03/12 02:30:18;;;;;;;;;;;;;;;;;;5004046;28;19949;-63
2024/03/12 02:32:46;;;;;;;;;;;;;;;;;;5001514;28;19948;-64
2024/03/12 02:35:13;;;;;;;;;;;;;;;;;;5003593;28;19925;-63
2024/03/12 02:37:39;;;;;;;;;;;;;;;;;;5001181;28;20008;-63
2024/03/12 02:40:05;;;;;;;;;;;;;;;;;;5000357;28;19974;-63
2024/03/12 02:42:30;;;;;;;;;;;;;;;;;;4996688;28;19913;-64
2024/03/12 02:44:56;;;;;;;;;;;;;;;;;;4999238;28;19924;-63
2024/03/12 02:47:22;;;;;;;;;;;;;;;;;;4998093;28;20347;-64
2024/03/12 02:49:48;;;;;;;;;;;;;;;;;;4996683;28;19914;-63
2024/03/12 02:52:14;;;;;;;;;;;;;;;;;;5004965;28;19919;-63
2024/03/12 02:54:41;;;;;;;;;;;;;;;;;;4996455;28;20339;-63
2024/03/12 02:57:08;;;;;;;;;;;;;;;;;;4997542;28;20033;-63
2024/03/12 02:59:34;;;;;;;;;;;;;;;;;;5005169;28;20024;-62
2024/03/12 03:02:00;;;;;;;;;;;;;;;;;;5002191;28;20000;-63
2024/03/12 03:04:27;;;;;;;;;;;;;;;;;;5002140;28;19920;-61
2024/03/12 03:06:57;;;;;;;;;;;;;;;;;;5000565;28;19984;-62
2024/03/12 03:09:25;;;;;;;;;;;;;;;;;;5002846;28;19922;-61
2024/03/12 03:11:50;;;;;;;;;;;;;;;;;;5005640;28;19917;-61
2024/03/12 03:14:16;;;;;;;;;;;;;;;;;;5005964;28;19922;-62
2024/03/12 03:16:42;;;;;;;;;;;;;;;;;;5006586;28;20410;-63
2024/03/12 03:19:08;;;;;;;;;;;;;;;;;;5009406;28;20269;-64
2024/03/12 03:21:34;;;;;;;;;;;;;;;;;;5008403;28;19913;-62
2024/03/12 03:24:01;;;;;;;;;;;;;;;;;;5009327;28;19917;-64
2024/03/12 03:26:27;;;;;;;;;;;;;;;;;;5009606;28;20175;-62
2024/03/12 03:28:53;;;;;;;;;;;;;;;;;;5008692;28;19921;-63
2024/03/12 03:31:19;;;;;;;;;;;;;;;;;;5010516;28;19921;-63
2024/03/12 03:33:48;;;;;;;;;;;;;;;;;;5009665;28;20269;-62
2024/03/12 03:36:14;;;;;;;;;;;;;;;;;;5009750;28;19929;-63
2024/03/12 03:38:40;;;;;;;;;;;;;;;;;;5010207;28;19958;-62
2024/03/12 03:41:07;;;;;;;;;;;;;;;;;;5007980;28;19913;-63
2024/03/12 03:43:32;;;;;;;;;;;;;;;;;;5002790;28;19922;-62
2024/03/12 03:45:58;;;;;;;;;;;;;;;;;;5003379;28;20101;-60
2024/03/12 03:48:24;;;;;;;;;;;;;;;;;;5001722;28;19959;-59
2024/03/12 03:50:50;;;;;;;;;;;;;;;;;;5002832;28;19922;-62
2024/03/12 03:53:16;;;;;;;;;;;;;;;;;;5008334;28;19917;-61
2024/03/12 03:55:42;;;;;;;;;;;;;;;;;;5001495;28;19933;-63
2024/03/12 03:58:08;;;;;;;;;;;;;;;;;;5001464;28;19921;-63
2024/03/12 04:00:35;;;;;;;;;;;;;;;;;;5003706;28;20016;-62
2024/03/12 04:03:02;;;;;;;;;;;;;;;;;;5002674;28;19917;-62
2024/03/12 04:05:28;;;;;;;;;;;;;;;;;;5002194;28;19914;-62
2024/03/12 04:07:54;;;;;;;;;;;;;;;;;;5012807;28;19913;-63
2024/03/12 04:10:22;;;;;;;;;;;;;;;;;;5004905;28;19918;-63
2024/03/12 04:12:48;;;;;;;;;;;;;;;;;;5000526;28;19913;-60
2024/03/12 04:15:14;;;;;;;;;;;;;;;;;;5003169;28;19914;-62
2024/03/12 04:17:43;;;;;;;;;;;;;;;;;;5002461;28;19938;-63
2024/03/12 04:20:10;;;;;;;;;;;;;;;;;;5002165;28;19917;-61
2024/03/12 04:22:36;;;;;;;;;;;;;;;;;;5002771;28;20311;-62
2024/03/12 04:25:02;;;;;;;;;;;;;;;;;;5003234;28;19918;-62
2024/03/12 04:27:28;;;;;;;;;;;;;;;;;;5008666;28;19929;-65
2024/03/12 04:29:54;;;;;;;;;;;;;;;;;;5017482;28;19913;-63
2024/03/12 04:32:20;;;;;;;;;;;;;;;;;;5016207;28;19995;-61
2024/03/12 04:34:46;;;;;;;;;;;;;;;;;;5004905;28;19913;-63
2024/03/12 04:37:13;;;;;;;;;;;;;;;;;;5001810;28;19928;-61
2024/03/12 04:39:39;;;;;;;;;;;;;;;;;;5004932;28;19925;-64
2024/03/12 04:42:09;;;;;;;;;;;;;;;;;;5003608;28;20427;-63
2024/03/12 04:44:34;;;;;;;;;;;;;;;;;;5002179;28;19917;-64
2024/03/12 04:47:00;;;;;;;;;;;;;;;;;;5002389;28;19947;-63
2024/03/12 04:49:26;;;;;;;;;;;;;;;;;;4998384;28;19948;-63
2024/03/12 04:51:52;;;;;;;;;;;;;;;;;;4998212;28;19933;-62
2024/03/12 04:54:18;;;;;;;;;;;;;;;;;;5001510;28;20040;-62
2024/03/12 04:56:44;;;;;;;;;;;;;;;;;;5002490;28;19924;-63
2024/03/12 04:59:10;;;;;;;;;;;;;;;;;;4998477;28;19918;-62
2024/03/12 05:01:36;;;;;;;;;;;;;;;;;;5003025;28;19924;-65
2024/03/12 05:04:02;;;;;;;;;;;;;;;;;;5004744;28;19961;-64
2024/03/12 05:06:28;;;;;;;;;;;;;;;;;;5004597;28;19913;-62
2024/03/12 05:08:55;;;;;;;;;;;;;;;;;;5006851;28;20363;-63
2024/03/12 05:11:21;;;;;;;;;;;;;;;;;;5005975;28;19932;-62
2024/03/12 05:13:47;;;;;;;;;;;;;;;;;;5006644;28;19921;-60
2024/03/12 05:16:13;;;;;;;;;;;;;;;;;;5005674;28;20426;-63
2024/03/12 05:18:39;;;;;;;;;;;;;;;;;;5004266;28;19957;-61
2024/03/12 05:21:06;;;;;;;;;;;;;;;;;;5006762;28;20376;-64
2024/03/12 05:23:32;;;;;;;;;;;;;;;;;;5003800;28;20416;-64
2024/03/12 05:25:58;;;;;;;;;;;;;;;;;;5025120;28;19991;-63
2024/03/12 05:28:24;;;;;;;;;;;;;;;;;;5009143;28;19922;-63
2024/03/12 05:30:51;;;;;;;;;;;;;;;;;;5006693;28;19921;-60
2024/03/12 05:33:17;;;;;;;;;;;;;;;;;;5005747;28;19922;-61
2024/03/12 05:35:51;;;;;;;;;;;;;;;;;;5005475;28;19948;-62
2024/03/12 05:41:14;;;;;;;;;;;;;;;;;;5004178;28;19925;-61
2024/03/12 05:49:10;;;;;;;;;;;;;;;;;;5001641;28;19928;-61
2024/03/12 05:51:37;;;;;;;;;;;;;;;;;;4997024;28;19922;-60
2024/03/12 05:54:05;;;;;;;;;;;;;;;;;;5000899;28;19996;-61
2024/03/12 05:56:30;;;;;;;;;;;;;;;;;;5005188;28;19967;-62
2024/03/12 05:58:57;;;;;;;;;;;;;;;;;;5000431;28;19921;-62
2024/03/12 06:01:26;;;;;;;;;;;;;;;;;;5000204;28;20411;-64
2024/03/12 06:03:52;;;;;;;;;;;;;;;;;;4997737;28;19917;-63
2024/03/12 06:06:17;;;;;;;;;;;;;;;;;;5000964;28;19922;-63
2024/03/12 06:08:44;;;;;;;;;;;;;;;;;;5001651;28;19913;-62
2024/03/12 06:11:11;;;;;;;;;;;;;;;;;;5004084;28;19956;-63
2024/03/12 06:13:38;;;;;;;;;;;;;;;;;;5000653;28;19921;-62
2024/03/12 06:16:04;;;;;;;;;;;;;;;;;;5004812;28;19983;-61
2024/03/12 06:18:29;;;;;;;;;;;;;;;;;;5005343;28;20396;-64
2024/03/12 06:20:55;;;;;;;;;;;;;;;;;;5013714;28;19959;-64
2024/03/12 06:23:22;;;;;;;;;;;;;;;;;;5012146;28;20386;-62
2024/03/12 06:25:48;;;;;;;;;;;;;;;;;;5012879;28;20043;-64
2024/03/12 06:28:14;;;;;;;;;;;;;;;;;;5000810;28;19925;-64
2024/03/12 06:30:40;;;;;;;;;;;;;;;;;;5004293;28;20165;-62
2024/03/12 06:33:09;;;;;;;;;;;;;;;;;;5002651;28;19922;-62
2024/03/12 06:35:35;;;;;;;;;;;;;;;;;;4997930;28;19917;-63
2024/03/12 06:38:01;;;;;;;;;;;;;;;;;;5005405;28;20338;-61
2024/03/12 06:40:27;;;;;;;;;;;;;;;;;;5004611;28;19925;-61
2024/03/12 06:42:54;;;;;;;;;;;;;;;;;;5005729;28;19921;-64
2024/03/12 06:45:21;;;;;;;;;;;;;;;;;;5005835;28;19964;-62
2024/03/12 06:47:48;;;;;;;;;;;;;;;;;;5028376;28;20059;-61
2024/03/12 06:50:14;;;;;;;;;;;;;;;;;;5032783;28;19925;-63
2024/03/12 06:52:40;;;;;;;;;;;;;;;;;;5017734;28;20387;-63
2024/03/12 06:55:12;;;;;;;;;;;;;;;;;;5020665;28;19921;-62
2024/03/12 06:57:39;;;;;;;;;;;;;;;;;;5019444;28;19909;-62
2024/03/12 07:00:09;;;;;;;;;;;;;;;;;;5022592;28;20330;-64
2024/03/12 07:02:38;;;;;;;;;;;;;;;;;;5017401;28;19920;-64
2024/03/12 07:05:04;;;;;;;;;;;;;;;;;;5018357;28;19920;-64
2024/03/12 07:07:31;;;;;;;;;;;;;;;;;;5024493;28;19925;-63
2024/03/12 07:09:59;;;;;;;;;;;;;;;;;;5020502;28;19909;-64
2024/03/12 07:12:25;;;;;;;;;;;;;;;;;;5018830;28;19949;-64
2024/03/12 07:14:54;;;;;;;;;;;;;;;;;;5021291;28;20072;-64
2024/03/12 07:17:20;;;;;;;;;;;;;;;;;;5018665;28;20019;-64
2024/03/12 07:19:47;;;;;;;;;;;;;;;;;;5020491;28;20423;-64
2024/03/12 07:22:17;;;;;;;;;;;;;;;;;;5022027;28;19956;-63
2024/03/12 07:24:43;;;;;;;;;;;;;;;;;;5017123;28;20007;-63
2024/03/12 07:27:09;;;;;;;;;;;;;;;;;;5026402;28;19910;-63
2024/03/12 07:29:35;;;;;;;;;;;;;;;;;;5017868;28;20364;-63
2024/03/12 07:32:04;;;;;;;;;;;;;;;;;;5026217;28;19914;-64
2024/03/12 07:34:30;;;;;;;;;;;;;;;;;;5019872;28;19917;-64
2024/03/12 07:36:57;;;;;;;;;;;;;;;;;;5024477;28;20398;-62
2024/03/12 07:39:31;;;;;;;;;;;;;;;;;;5025270;28;19920;-64
2024/03/12 07:41:56;;;;;;;;;;;;;;;;;;5023472;28;19913;-64
2024/03/12 07:44:23;;;;;;;;;;;;;;;;;;5024283;28;19913;-64
2024/03/12 07:46:49;;;;;;;;;;;;;;;;;;5022753;28;19944;-64
2024/03/12 07:49:20;;;;;;;;;;;;;;;;;;5019481;28;19956;-64
2024/03/12 07:51:47;;;;;;;;;;;;;;;;;;5018969;28;19914;-64
2024/03/12 07:54:13;;;;;;;;;;;;;;;;;;5013691;28;19944;-64
2024/03/12 07:56:39;;;;;;;;;;;;;;;;;;5020236;28;20384;-63
2024/03/12 07:59:05;;;;;;;;;;;;;;;;;;5023633;28;19920;-64
2024/03/12 08:01:31;;;;;;;;;;;;;;;;;;5025544;28;19975;-64
2024/03/12 08:03:57;;;;;;;;;;;;;;;;;;5019188;28;20089;-62
2024/03/12 08:06:23;;;;;;;;;;;;;;;;;;5020948;28;20410;-63
2024/03/12 08:08:49;;;;;;;;;;;;;;;;;;5018695;28;19913;-64
2024/03/12 08:11:15;;;;;;;;;;;;;;;;;;5027226;28;19913;-63
2024/03/12 08:13:40;;;;;;;;;;;;;;;;;;5023069;28;19910;-64
2024/03/12 08:16:06;;;;;;;;;;;;;;;;;;5022693;28;20299;-63
2024/03/12 08:18:32;;;;;;;;;;;;;;;;;;5026443;28;19916;-64
2024/03/12 08:20:58;;;;;;;;;;;;;;;;;;5019861;28;19913;-64
2024/03/12 08:23:25;;;;;;;;;;;;;;;;;;5021723;28;20269;-60
2024/03/12 08:25:51;;;;;;;;;;;;;;;;;;5015898;28;19932;-58
2024/03/12 08:28:17;;;;;;;;;;;;;;;;;;5024826;28;20383;-62
2024/03/12 08:30:44;;;;;;;;;;;;;;;;;;5019336;28;19909;-60
2024/03/12 08:33:10;;;;;;;;;;;;;;;;;;5013468;28;20012;-60
2024/03/12 08:35:36;;;;;;;;;;;;;;;;;;5013308;28;19925;-59
2024/03/12 08:38:04;;;;;;;;;;;;;;;;;;5011945;28;19913;-60
2024/03/12 08:40:30;;;;;;;;;;;;;;;;;;5016652;28;20392;-58
2024/03/12 08:42:56;;;;;;;;;;;;;;;;;;5022132;28;19921;-62
2024/03/12 08:45:22;;;;;;;;;;;;;;;;;;5020097;28;20372;-61
2024/03/12 08:47:48;;;;;;;;;;;;;;;;;;5027295;28;19910;-61
2024/03/12 08:50:14;;;;;;;;;;;;;;;;;;5016362;28;20398;-60
2024/03/12 08:52:40;;;;;;;;;;;;;;;;;;5019250;28;19935;-58
2024/03/12 08:55:05;;;;;;;;;;;;;;;;;;5019014;28;20351;-59
2024/03/12 08:57:31;;;;;;;;;;;;;;;;;;5025305;28;19912;-59
2024/03/12 08:59:57;;;;;;;;;;;;;;;;;;5015382;28;19929;-57
2024/03/12 09:02:23;;;;;;;;;;;;;;;;;;5028356;28;19913;-60
2024/03/12 09:04:49;;;;;;;;;;;;;;;;;;5012598;28;19918;-61
2024/03/12 09:07:16;;;;;;;;;;;;;;;;;;5017981;28;19913;-61
2024/03/12 09:09:42;;;;;;;;;;;;;;;;;;5006483;28;19968;-60
2024/03/12 09:12:08;;;;;;;;;;;;;;;;;;5009217;28;19926;-59
2024/03/12 09:14:35;;;;;;;;;;;;;;;;;;5012629;28;19914;-58
2024/03/12 09:17:02;;;;;;;;;;;;;;;;;;5019955;28;19913;-59
2024/03/12 09:19:28;;;;;;;;;;;;;;;;;;5013122;28;19921;-60
2024/03/12 09:21:54;;;;;;;;;;;;;;;;;;5012773;28;19921;-58
2024/03/12 09:24:20;;;;;;;;;;;;;;;;;;5016729;28;19959;-57
2024/03/12 09:26:46;;;;;;;;;;;;;;;;;;5017815;28;19966;-60
2024/03/12 09:29:14;;;;;;;;;;;;;;;;;;5018938;28;19913;-60
2024/03/12 09:31:41;;;;;;;;;;;;;;;;;;5018171;28;19987;-61
2024/03/12 09:34:07;;;;;;;;;;;;;;;;;;5019287;28;19913;-60
2024/03/12 09:36:33;;;;;;;;;;;;;;;;;;5016506;28;19918;-59
2024/03/12 09:38:59;;;;;;;;;;;;;;;;;;5012917;28;19921;-60
2024/03/12 09:41:25;;;;;;;;;;;;;;;;;;5019937;28;20000;-61
2024/03/12 09:43:51;;;;;;;;;;;;;;;;;;5014472;28;19980;-59
2024/03/12 09:46:17;;;;;;;;;;;;;;;;;;5010299;28;19914;-61
2024/03/12 09:48:44;;;;;;;;;;;;;;;;;;5012305;28;20003;-60
2024/03/12 09:51:12;;;;;;;;;;;;;;;;;;5015854;28;19917;-59
2024/03/12 09:53:39;;;;;;;;;;;;;;;;;;5019492;28;19913;-59
2024/03/12 09:56:06;;;;;;;;;;;;;;;;;;5013229;28;19985;-59
2024/03/12 09:58:32;;;;;;;;;;;;;;;;;;5029498;28;19947;-60
2024/03/12 10:00:57;;;;;;;;;;;;;;;;;;5007917;28;19922;-60
2024/03/12 10:03:24;;;;;;;;;;;;;;;;;;5012999;28;19920;-60
2024/03/12 10:05:50;;;;;;;;;;;;;;;;;;5008448;28;19928;-59
2024/03/12 10:08:16;;;;;;;;;;;;;;;;;;5023124;28;19913;-59
2024/03/12 10:10:42;;;;;;;;;;;;;;;;;;5011441;28;19917;-60
2024/03/12 10:13:14;;;;;;;;;;;;;;;;;;5022220;28;19921;-58
2024/03/12 10:15:40;;;;;;;;;;;;;;;;;;5013046;28;20334;-55
2024/03/12 10:18:07;;;;;;;;;;;;;;;;;;5018469;28;20514;-56
2024/03/12 10:20:33;;;;;;;;;;;;;;;;;;5009898;28;19922;-60
2024/03/12 10:22:59;;;;;;;;;;;;;;;;;;5016955;28;20225;-57
2024/03/12 10:25:25;;;;;;;;;;;;;;;;;;5019780;28;20027;-56
2024/03/12 10:27:53;;;;;;;;;;;;;;;;;;5019293;28;19914;-57
2024/03/12 10:30:19;;;;;;;;;;;;;;;;;;5010566;28;19917;-57
2024/03/12 10:32:45;;;;;;;;;;;;;;;;;;5017255;28;19913;-59
2024/03/12 10:35:11;;;;;;;;;;;;;;;;;;5006629;28;20066;-57
2024/03/12 10:37:38;;;;;;;;;;;;;;;;;;5008887;28;19991;-59
2024/03/12 10:40:05;;;;;;;;;;;;;;;;;;5013314;28;19917;-55
2024/03/12 10:42:32;;;;;;;;;;;;;;;;;;5012414;28;19952;-56
2024/03/12 10:44:58;;;;;;;;;;;;;;;;;;5013311;28;19914;-58
2024/03/12 10:47:24;;;;;;;;;;;;;;;;;;5020768;28;19920;-58
2024/03/12 10:49:49;;;;;;;;;;;;;;;;;;5026371;28;19928;-57
2024/03/12 10:52:15;;;;;;;;;;;;;;;;;;5021298;28;19919;-56
2024/03/12 10:54:41;;;;;;;;;;;;;;;;;;5021001;28;19913;-56
2024/03/12 10:57:07;;;;;;;;;;;;;;;;;;5021719;28;19914;-56
2024/03/12 10:59:33;;;;;;;;;;;;;;;;;;5016293;28;20295;-57
2024/03/12 11:01:59;;;;;;;;;;;;;;;;;;5021471;28;19921;-59
2024/03/12 11:04:24;;;;;;;;;;;;;;;;;;5017098;28;19918;-58
2024/03/12 11:06:51;;;;;;;;;;;;;;;;;;5016432;28;19913;-57
2024/03/12 11:09:21;;;;;;;;;;;;;;;;;;5026341;28;19992;-57
2024/03/12 11:11:49;;;;;;;;;;;;;;;;;;5019543;28;19967;-55
2024/03/12 11:14:15;;;;;;;;;;;;;;;;;;5023586;28;19959;-57
2024/03/12 11:16:41;;;;;;;;;;;;;;;;;;5020095;28;19913;-59
2024/03/12 11:19:07;;;;;;;;;;;;;;;;;;5021518;28;20011;-57
2024/03/12 11:21:35;;;;;;;;;;;;;;;;;;5018818;28;20067;-58
2024/03/12 11:24:01;;;;;;;;;;;;;;;;;;5024078;28;19936;-56
2024/03/12 11:26:27;;;;;;;;;;;;;;;;;;5018524;28;19935;-57
2024/03/12 11:28:53;;;;;;;;;;;;;;;;;;5018115;28;19996;-60
2024/03/12 11:31:19;;;;;;;;;;;;;;;;;;5018387;28;19921;-55
2024/03/12 11:33:54;;;;;;;;;;;;;;;;;;5007301;28;20414;-58
2024/03/12 11:36:23;;;;;;;;;;;;;;;;;;5007302;28;19934;-58
2024/03/12 11:38:51;;;;;;;;;;;;;;;;;;5006584;28;19917;-57
2024/03/12 11:41:17;;;;;;;;;;;;;;;;;;5009044;28;20007;-57
2024/03/12 11:43:43;;;;;;;;;;;;;;;;;;5012536;28;19992;-58
2024/03/12 11:46:09;;;;;;;;;;;;;;;;;;5015179;28;20375;-60
2024/03/12 11:48:35;;;;;;;;;;;;;;;;;;5008013;28;19957;-58
2024/03/12 11:51:03;;;;;;;;;;;;;;;;;;5016088;28;19917;-58
2024/03/12 11:53:30;;;;;;;;;;;;;;;;;;5020027;28;19909;-60
2024/03/12 11:55:57;;;;;;;;;;;;;;;;;;5013893;28;20372;-57
2024/03/12 11:58:23;;;;;;;;;;;;;;;;;;5005459;28;19952;-60
2024/03/12 12:00:52;;;;;;;;;;;;;;;;;;5005780;28;21136;-60
2024/03/12 12:03:18;;;;;;;;;;;;;;;;;;5012139;28;19921;-60
2024/03/12 12:05:44;;;;;;;;;;;;;;;;;;5020888;28;19914;-58
2024/03/12 12:08:10;;;;;;;;;;;;;;;;;;5010361;28;19922;-58
2024/03/12 12:10:36;;;;;;;;;;;;;;;;;;5014837;28;19949;-60
2024/03/12 12:13:02;;;;;;;;;;;;;;;;;;5002534;28;19914;-60
2024/03/12 12:15:33;;;;;;;;;;;;;;;;;;5004332;28;20267;-58
2024/03/12 12:17:59;;;;;;;;;;;;;;;;;;5001659;28;20279;-59
2024/03/12 12:20:26;;;;;;;;;;;;;;;;;;5010295;28;19924;-56
2024/03/12 12:22:52;;;;;;;;;;;;;;;;;;5013272;28;19927;-56
2024/03/12 12:25:19;;;;;;;;;;;;;;;;;;5010354;28;20583;-58
2024/03/12 12:27:46;;;;;;;;;;;;;;;;;;5008534;28;20429;-57
2024/03/12 12:30:14;;;;;;;;;;;;;;;;;;5013656;28;19948;-57
2024/03/12 12:32:42;;;;;;;;;;;;;;;;;;5015276;28;19917;-54
2024/03/12 12:35:11;;;;;;;;;;;;;;;;;;5013288;28;20335;-57
2024/03/12 12:37:37;;;;;;;;;;;;;;;;;;5013851;28;19957;-57
2024/03/12 12:40:07;;;;;;;;;;;;;;;;;;5024391;28;19953;-58
2024/03/12 12:42:33;;;;;;;;;;;;;;;;;;5006519;28;19921;-58
2024/03/12 12:45:04;;;;;;;;;;;;;;;;;;5015773;28;20348;-57
2024/03/12 12:47:30;;;;;;;;;;;;;;;;;;5016312;28;20330;-59
2024/03/12 12:49:59;;;;;;;;;;;;;;;;;;5017211;28;19921;-59
2024/03/12 12:52:24;;;;;;;;;;;;;;;;;;5013122;28;20407;-58
2024/03/12 12:54:51;;;;;;;;;;;;;;;;;;5003451;28;20016;-59
2024/03/12 12:57:17;;;;;;;;;;;;;;;;;;5006193;28;20011;-58
2024/03/12 12:59:43;;;;;;;;;;;;;;;;;;5008443;28;20020;-60
2024/03/12 13:02:09;;;;;;;;;;;;;;;;;;5004925;28;19913;-60
2024/03/12 13:04:35;;;;;;;;;;;;;;;;;;5015071;28;20279;-58
2024/03/12 13:07:00;;;;;;;;;;;;;;;;;;5015204;28;19920;-59
2024/03/12 13:09:27;;;;;;;;;;;;;;;;;;5013320;28;20004;-58
2024/03/12 13:11:53;;;;;;;;;;;;;;;;;;5004390;28;20369;-59
2024/03/12 13:14:20;;;;;;;;;;;;;;;;;;5015734;28;19971;-58
2024/03/12 13:16:46;;;;;;;;;;;;;;;;;;5011181;28;19948;-59
2024/03/12 13:19:11;;;;;;;;;;;;;;;;;;5004819;28;19922;-57
2024/03/12 13:21:37;;;;;;;;;;;;;;;;;;5008508;28;19928;-57
2024/03/12 13:24:03;;;;;;;;;;;;;;;;;;5012617;28;20612;-55
2024/03/12 13:26:31;;;;;;;;;;;;;;;;;;5013164;28;19918;-57
2024/03/12 13:28:57;;;;;;;;;;;;;;;;;;5011304;28;19914;-58
2024/03/12 13:31:23;;;;;;;;;;;;;;;;;;5017489;28;19920;-59
2024/03/12 13:33:49;;;;;;;;;;;;;;;;;;5015934;28;19926;-58
2024/03/12 13:36:17;;;;;;;;;;;;;;;;;;5011440;28;19924;-60
2024/03/12 13:38:43;;;;;;;;;;;;;;;;;;5005880;28;20055;-58
2024/03/12 13:41:09;;;;;;;;;;;;;;;;;;5009116;28;19932;-59
2024/03/12 13:43:36;;;;;;;;;;;;;;;;;;5009053;28;20269;-57
2024/03/12 13:46:05;;;;;;;;;;;;;;;;;;5013976;28;19914;-59
2024/03/12 13:48:31;;;;;;;;;;;;;;;;;;5014362;28;19913;-60
2024/03/12 13:50:57;;;;;;;;;;;;;;;;;;5012308;28;20396;-55
2024/03/12 13:53:23;;;;;;;;;;;;;;;;;;5011536;28;19988;-58
2024/03/12 13:55:49;;;;;;;;;;;;;;;;;;5008318;28;20064;-54
2024/03/12 13:58:15;;;;;;;;;;;;;;;;;;5008822;28;19986;-60
2024/03/12 14:00:41;;;;;;;;;;;;;;;;;;5011296;28;19921;-60
2024/03/12 14:03:08;;;;;;;;;;;;;;;;;;5012423;28;19920;-56
2024/03/12 14:05:34;;;;;;;;;;;;;;;;;;5018105;28;19920;-59
2024/03/12 14:08:00;;;;;;;;;;;;;;;;;;5019620;28;19913;-59
2024/03/12 14:10:26;;;;;;;;;;;;;;;;;;5013368;28;19914;-59
2024/03/12 14:12:52;;;;;;;;;;;;;;;;;;5012310;28;19929;-59
2024/03/12 14:15:18;;;;;;;;;;;;;;;;;;5014516;28;19940;-58
2024/03/12 14:17:44;;;;;;;;;;;;;;;;;;5019659;28;19913;-58
2024/03/12 14:20:14;;;;;;;;;;;;;;;;;;5017093;28;19925;-57
2024/03/12 14:22:40;;;;;;;;;;;;;;;;;;5005279;28;19918;-58
2024/03/12 14:25:09;;;;;;;;;;;;;;;;;;5013075;28;20276;-61
2024/03/12 14:27:34;;;;;;;;;;;;;;;;;;5010262;28;19969;-58
2024/03/12 14:30:01;;;;;;;;;;;;;;;;;;5014403;28;20375;-59
2024/03/12 14:32:27;;;;;;;;;;;;;;;;;;5010858;28;19979;-59
2024/03/12 14:34:53;;;;;;;;;;;;;;;;;;5016565;28;20463;-60
2024/03/12 14:37:18;;;;;;;;;;;;;;;;;;5015726;28;20079;-58
2024/03/12 14:39:44;;;;;;;;;;;;;;;;;;5012787;28;20392;-57
2024/03/12 14:42:10;;;;;;;;;;;;;;;;;;5019183;28;19913;-58
2024/03/12 14:44:36;;;;;;;;;;;;;;;;;;5012442;28;19925;-60
2024/03/12 14:47:02;;;;;;;;;;;;;;;;;;5017022;28;19971;-61
2024/03/12 14:49:28;;;;;;;;;;;;;;;;;;5015443;28;19921;-56
2024/03/12 14:51:55;;;;;;;;;;;;;;;;;;5011751;28;20350;-59
2024/03/12 14:54:20;;;;;;;;;;;;;;;;;;5013964;28;20832;-61
2024/03/12 14:56:46;;;;;;;;;;;;;;;;;;5018246;28;19913;-58
2024/03/12 14:59:12;;;;;;;;;;;;;;;;;;5017020;28;20352;-59
2024/03/12 15:01:39;;;;;;;;;;;;;;;;;;5013650;28;19914;-59
2024/03/12 15:04:06;;;;;;;;;;;;;;;;;;5015360;28;20299;-60
2024/03/12 15:06:32;;;;;;;;;;;;;;;;;;5011960;28;19960;-60
2024/03/12 15:08:58;;;;;;;;;;;;;;;;;;5014033;28;20334;-61
2024/03/12 15:11:24;;;;;;;;;;;;;;;;;;5017139;28;19957;-59
2024/03/12 15:13:50;;;;;;;;;;;;;;;;;;5009953;28;20394;-59
2024/03/12 15:16:18;;;;;;;;;;;;;;;;;;5017058;28;19913;-59
2024/03/12 15:18:44;;;;;;;;;;;;;;;;;;5018686;28;19923;-60
2024/03/12 15:21:10;;;;;;;;;;;;;;;;;;5016823;28;19925;-61
2024/03/12 15:23:36;;;;;;;;;;;;;;;;;;5017540;28;19914;-60
2024/03/12 15:26:02;;;;;;;;;;;;;;;;;;5011392;28;19988;-61
2024/03/12 15:28:28;;;;;;;;;;;;;;;;;;5012420;28;19948;-60
2024/03/12 15:30:54;;;;;;;;;;;;;;;;;;5015471;28;19913;-61
2024/03/12 15:33:20;;;;;;;;;;;;;;;;;;5020036;28;20012;-60
2024/03/12 15:35:45;;;;;;;;;;;;;;;;;;5015742;28;19922;-61
2024/03/12 15:38:11;;;;;;;;;;;;;;;;;;5012010;28;19913;-61
2024/03/12 15:40:37;;;;;;;;;;;;;;;;;;5018222;28;20323;-60
2024/03/12 15:43:05;;;;;;;;;;;;;;;;;;5017349;28;19929;-60
2024/03/12 15:45:31;;;;;;;;;;;;;;;;;;5025552;28;20277;-60
2024/03/12 15:47:59;;;;;;;;;;;;;;;;;;5022160;28;19967;-59
2024/03/12 15:50:26;;;;;;;;;;;;;;;;;;5018225;28;19959;-60
2024/03/12 15:52:53;;;;;;;;;;;;;;;;;;5013160;28;20296;-60
2024/03/12 15:55:19;;;;;;;;;;;;;;;;;;5005830;28;19913;-61
2024/03/12 15:57:45;;;;;;;;;;;;;;;;;;5012126;28;19913;-61
2024/03/12 16:00:13;;;;;;;;;;;;;;;;;;5012683;28;19917;-59
2024/03/12 16:02:39;;;;;;;;;;;;;;;;;;5005017;28;19922;-61
2024/03/12 16:05:05;;;;;;;;;;;;;;;;;;5010968;28;19942;-61
2024/03/12 16:07:30;;;;;;;;;;;;;;;;;;5014276;28;19925;-61
2024/03/12 16:09:56;;;;;;;;;;;;;;;;;;5007043;28;20399;-62
2024/03/12 16:12:22;;;;;;;;;;;;;;;;;;5010056;28;19913;-61
2024/03/12 16:14:48;;;;;;;;;;;;;;;;;;5006046;28;19917;-62
2024/03/12 16:17:14;;;;;;;;;;;;;;;;;;5016124;28;19917;-60
2024/03/12 16:19:40;;;;;;;;;;;;;;;;;;5020007;28;19925;-61
2024/03/12 16:22:07;;;;;;;;;;;;;;;;;;5013079;28;20276;-61
2024/03/12 16:24:33;;;;;;;;;;;;;;;;;;5015038;28;19924;-61
2024/03/12 16:26:59;;;;;;;;;;;;;;;;;;5012548;28;19917;-62
2024/03/12 16:29:26;;;;;;;;;;;;;;;;;;5011960;28;20439;-61
2024/03/12 16:31:52;;;;;;;;;;;;;;;;;;5017781;28;19960;-60
2024/03/12 16:34:18;;;;;;;;;;;;;;;;;;5009528;28;20406;-62
2024/03/12 16:36:44;;;;;;;;;;;;;;;;;;5016988;28;19936;-60
2024/03/12 16:39:10;;;;;;;;;;;;;;;;;;5012079;28;19967;-61
2024/03/12 16:41:36;;;;;;;;;;;;;;;;;;5014306;28;20004;-62
2024/03/12 16:44:03;;;;;;;;;;;;;;;;;;5019353;28;19960;-62
2024/03/12 16:46:29;;;;;;;;;;;;;;;;;;5013109;28;19973;-62
2024/03/12 16:48:56;;;;;;;;;;;;;;;;;;5014626;28;19976;-62